Latest Coastal Weather Observations for North Island

IDW60701

Issued at 12:44 pm WST Wednesday 20 January 2021 (issued every 10 minutes, with the page automatically refreshed every 10 minutes)

About coastal observations | Map of coastal stations | Coastal observations for WA | Marine services | Other Formats
Station Details ID: 008290 Name: NORTH ISLAND Lat: -28.30 Lon: 113.59 Height: 2.2 m
Data from the previous 72 hours. | See also: Recent months at North Island
Date/Time
WST
Wind Sea
Height
m
Swell Vis
km
Cloud Weather Temp
°C
Press
MSL
hPa
Rain since
9am
mm
Dir  Spd
kts
Gust
kts
Height
m
Period
s
Dir
20/12:30pm S 12 15 - - - - - - - 27.7 1011.6 0.0
20/12:00pm SSE 11 13 - - - - - - - 28.4 1012.1 0.0
20/11:30am SSE 12 15 - - - - - - - 27.7 1012.4 0.0
20/11:00am S 11 17 - - - - - - - 28.1 1012.5 0.0
20/10:30am SSE 10 13 - - - - - - - 26.3 1012.7 0.0
20/10:00am SSE 13 16 - - - - - - - 26.5 1012.9 0.0
20/09:30am S 12 16 - - - - - - - 27.3 1012.7 0.0
20/09:00am S 9 12 - - - - - - - 25.8 1012.7 0.0
20/08:30am SSE 10 12 - - - - - - - 25.7 1012.6 0.0
20/08:00am S 12 15 - - - - - - - 25.3 1012.3 0.0
20/07:30am SSW 13 16 - - - - - - - 25.0 1012.2 0.0
20/07:00am S 9 10 - - - - - - - 24.6 1011.8 0.0
20/06:30am SSW 9 12 - - - - - - - 24.6 1011.6 0.0
20/06:00am S 10 13 - - - - - - - 24.2 1011.3 0.0
20/05:30am SSW 12 16 - - - - - - - 24.3 1011.0 0.0
20/05:00am S 10 13 - - - - - - - 24.1 1010.5 0.0
20/04:30am S 12 16 - - - - - - - 24.0 1010.1 0.0
20/04:00am S 12 15 - - - - - - - 24.0 1009.9 0.0
20/03:30am S 12 15 - - - - - - - 24.2 1009.8 0.0
20/03:00am S 10 13 - - - - - - - 24.5 1010.0 0.0
20/02:30am S 10 13 - - - - - - - 24.6 1010.2 0.0
20/02:00am SSW 12 15 - - - - - - - 24.7 1010.4 0.0
20/01:30am SSW 12 14 - - - - - - - 24.5 1010.6 0.0
20/01:00am SSW 11 15 - - - - - - - 24.5 1010.7 0.0
20/12:30am SSW 12 16 - - - - - - - 24.3 1010.9 0.0
20/12:00am SSW 10 13 - - - - - - - 24.5 1011.0 0.0
 
Date/Time
WST
Wind Sea
Height
m
Swell Vis
km
Cloud Weather Temp
°C
Press
MSL
hPa
Rain since
9am
mm
Dir  Spd
kts
Gust
kts
Height
m
Period
s
Dir
19/11:30pm S 10 13 - - - - - - - 24.5 1011.1 0.0
19/11:00pm SSW 14 17 - - - - - - - 24.4 1011.2 0.0
19/10:30pm SSW 13 17 - - - - - - - 24.3 1011.1 0.0
19/10:00pm SSW 15 19 - - - - - - - 24.1 1011.1 0.0
19/09:30pm SW 16 20 - - - - - - - 24.0 1010.8 0.0
19/09:00pm SW 14 17 - - - - - - - 24.3 1010.5 0.0
19/08:30pm SW 12 14 - - - - - - - 24.6 1010.4 0.0
19/08:00pm SW 10 13 - - - - - - - 24.6 1010.2 0.0
19/07:30pm SW 11 14 - - - - - - - 25.0 1009.9 0.0
19/07:00pm SW 11 14 - - - - - - - 25.1 1009.6 0.0
19/06:30pm SW 13 17 - - - - - - - 25.7 1009.3 0.0
19/06:00pm SW 12 15 - - - - - - - 26.5 1009.2 0.0
19/05:30pm SW 13 15 - - - - - - - 27.1 1009.4 0.0
19/05:00pm SW 12 15 - - - - - - - 26.9 1009.4 0.0
19/04:30pm SW 12 15 - - - - - - - 27.6 1009.3 0.0
19/04:00pm WSW 12 14 - - - - - - - 27.7 1009.4 0.0
19/03:30pm WSW 11 14 - - - - - - - 28.1 1009.6 0.0
19/03:00pm SW 12 15 - - - - - - - 28.5 1009.6 0.0
19/02:30pm SW 12 14 - - - - - - - 28.9 1009.8 0.0
19/02:00pm SW 11 14 - - - - - - - 28.7 1009.9 0.0
19/01:30pm WSW 13 15 - - - - - - - 28.6 1010.0 0.0
19/01:00pm SW 13 15 - - - - - - - 28.6 1009.9 0.0
19/12:30pm SW 12 15 - - - - - - - 28.6 1010.0 0.0
19/12:00pm SW 11 13 - - - - - - - 29.0 1010.1 0.0
19/11:30am SSW 10 12 - - - - - - - 28.5 1010.3 0.0
19/11:00am SSW 10 11 - - - - - - - 28.0 1010.5 0.0
19/10:30am SW 9 11 - - - - - - - 27.8 1010.6 0.0
19/10:00am SW 9 11 - - - - - - - 28.0 1010.6 0.0
19/09:30am SW 9 12 - - - - - - - 27.8 1010.8 0.0
19/09:00am SW 9 11 - - - - - - - 27.4 1010.7 0.0
19/08:30am SSW 7 9 - - - - - - - 26.3 1010.7 0.0
19/08:00am SSW 7 8 - - - - - - - 26.0 1010.8 0.0
19/07:30am SW 7 9 - - - - - - - 25.8 1010.7 0.0
19/07:00am SW 8 10 - - - - - - - 25.4 1010.4 0.0
19/06:30am SW 8 10 - - - - - - - 25.0 1010.1 0.0
19/06:00am SW 8 10 - - - - - - - 24.7 1010.1 0.0
19/05:30am SW 7 9 - - - - - - - 24.8 1009.9 0.0
19/05:00am SW 8 10 - - - - - - - 24.9 1009.6 0.0
19/04:30am WSW 7 9 - - - - - - - 25.0 1009.2 0.0
19/04:00am W 8 9 - - - - - - - 25.1 1009.4 0.0
19/03:30am W 7 8 - - - - - - - 25.2 1009.5 0.0
19/03:00am W 7 8 - - - - - - - 25.3 1009.6 0.0
19/02:30am W 7 8 - - - - - - - 25.4 1009.6 0.0
19/02:00am W 8 9 - - - - - - - 25.4 1009.6 0.0
19/01:30am WSW 8 10 - - - - - - - 25.4 1009.7 0.0
19/01:00am W 9 11 - - - - - - - 25.7 1009.9 0.0
19/12:30am WNW 5 6 - - - - - - - 25.5 1009.8 0.0
19/12:00am WNW 6 7 - - - - - - - 25.5 1010.2 0.0
 
Date/Time
WST
Wind Sea
Height
m
Swell Vis
km
Cloud Weather Temp
°C
Press
MSL
hPa
Rain since
9am
mm
Dir  Spd
kts
Gust
kts
Height
m
Period
s
Dir
18/11:30pm WNW 5 5 - - - - - - - 25.4 1010.4 0.0
18/11:00pm NW 4 6 - - - - - - - 25.4 1010.5 0.0
18/10:30pm N 5 6 - - - - - - - 25.7 1010.8 0.0
18/10:00pm N 5 7 - - - - - - - 25.7 1011.1 0.0
18/09:30pm NNE 5 7 - - - - - - - 25.8 1011.1 0.0
18/09:00pm N 4 5 - - - - - - - 25.7 1010.9 0.0
18/08:30pm NE 5 7 - - - - - - - 26.0 1010.5 0.0
18/08:00pm NNE 4 4 - - - - - - - 26.1 1010.4 0.0
18/07:30pm NE 5 6 - - - - - - - 26.4 1010.2 0.0
18/07:00pm NE 6 7 - - - - - - - 26.7 1010.0 0.0
18/06:30pm NE 6 7 - - - - - - - 27.1 1009.6 0.0
18/06:00pm NNW 6 7 - - - - - - - 27.6 1009.3 0.0
18/05:30pm NW 7 8 - - - - - - - 28.1 1009.0 0.0
18/05:00pm NW 7 9 - - - - - - - 28.8 1009.0 0.0
18/04:30pm NW 7 9 - - - - - - - 28.4 1009.2 0.0
18/04:00pm WNW 7 9 - - - - - - - 29.0 1009.2 0.0
18/03:30pm NW 8 11 - - - - - - - 29.8 1009.3 0.0
18/03:00pm NW 9 10 - - - - - - - 29.5 1009.7 0.0
18/02:30pm NNW 8 10 - - - - - - - 29.2 1009.8 0.0
18/02:00pm NNW 8 11 - - - - - - - 30.2 1009.9 0.0
18/01:30pm NNE 8 10 - - - - - - - 30.4 1009.8 0.0
18/01:00pm NNW 7 9 - - - - - - - 29.9 1010.1 0.0
18/12:30pm N 5 8 - - - - - - - 29.0 1010.2 0.0
18/12:00pm N 7 9 - - - - - - - 28.1 1010.4 0.0
18/11:30am N 5 7 - - - - - - - 26.6 1010.6 0.0
18/11:00am NE 6 8 - - - - - - - 27.5 1010.5 0.0
18/10:30am NE 6 8 - - - - - - - 27.5 1010.6 0.0
18/10:00am NNE 8 11 - - - - - - - 28.0 1010.6 0.0
18/09:30am NE 8 11 - - - - - - - 28.2 1010.7 0.0
18/09:00am NE 8 10 - - - - - - - 28.4 1010.9 0.0
18/08:30am NE 7 10 - - - - - - - 27.7 1011.0 0.0
18/08:00am NE 9 11 - - - - - - - 27.5 1011.0 0.0
18/07:30am NNE 9 11 - - - - - - - 27.1 1010.8 0.0
18/07:00am NNE 7 9 - - - - - - - 26.1 1010.8 0.0
18/06:30am NNE 9 11 - - - - - - - 25.7 1010.2 0.0
18/06:00am NNE 9 12 - - - - - - - 25.8 1010.1 0.0
18/05:30am NNE 9 11 - - - - - - - 26.0 1009.7 0.0
18/05:00am N 9 12 - - - - - - - 26.0 1009.3 0.0
18/04:30am NNE 9 11 - - - - - - - 25.8 1008.7 0.0
18/04:00am NNE 8 10 - - - - - - - 25.8 1008.7 0.0
18/03:30am NNE 9 10 - - - - - - - 25.8 1008.7 0.0
18/03:00am NNE 9 11 - - - - - - - 25.9 1008.8 0.0
18/02:30am NNE 7 9 - - - - - - - 26.0 1008.9 0.0
18/02:00am NNE 6 8 - - - - - - - 26.1 1008.9 0.0
18/01:30am NNE 7 9 - - - - - - - 26.0 1009.0 0.0
18/01:00am NNE 8 9 - - - - - - - 26.2 1009.4 0.0
18/12:30am NNE 9 11 - - - - - - - 26.4 1009.5 0.0
18/12:00am N 6 8 - - - - - - - 26.4 1010.1 0.0
 
Date/Time
WST
Wind Sea
Height
m
Swell Vis
km
Cloud Weather Temp
°C
Press
MSL
hPa
Rain since
9am
mm
Dir  Spd
kts
Gust
kts
Height
m
Period
s
Dir
17/11:30pm NNW 6 7 - - - - - - - 26.7 1010.1 0.0
17/11:00pm NNW 5 6 - - - - - - - 26.8 1009.9 0.0
17/10:30pm N 4 5 - - - - - - - 26.8 1009.8 0.0
17/10:00pm NNW 5 6 - - - - - - - 26.9 1009.5 0.0
17/09:30pm WNW 5 7 - - - - - - - 27.0 1009.4 0.0
17/09:00pm WNW 4 6 - - - - - - - 26.8 1009.3 0.0
17/08:30pm WSW 7 8 - - - - - - - 27.2 1009.0 0.0
17/08:00pm WSW 6 7 - - - - - - - 27.4 1009.1 0.0
17/07:30pm W 8 9 - - - - - - - 27.6 1008.9 0.0
17/07:00pm SW 7 8 - - - - - - - 28.1 1008.6 0.0
17/06:30pm SW 8 10 - - - - - - - 28.9 1008.4 0.0
17/06:00pm SW 6 8 - - - - - - - 29.7 1008.3 0.0
17/05:30pm SW 8 9 - - - - - - - 31.1 1008.1 0.0
17/05:00pm SSW 9 11 - - - - - - - 31.4 1008.0 0.0
17/04:30pm SSW 8 10 - - - - - - - 31.3 1008.0 0.0
17/04:00pm SW 7 9 - - - - - - - 33.1 1008.1 0.0
17/03:30pm SW 6 7 - - - - - - - 32.0 1008.3 0.0
17/03:00pm SSW 6 8 - - - - - - - 32.8 1008.7 0.0
17/02:30pm S 8 9 - - - - - - - 33.2 1008.9 0.0
17/02:00pm S 5 8 - - - - - - - 33.6 1008.7 0.0
17/01:30pm SW 5 7 - - - - - - - 34.8 1008.8 0.0
17/01:00pm NE 5 8 - - - - - - - 35.1 1009.2 0.0

Other formats

Comma delimited format used in spreadsheet applications
http://www.bom.gov.au/fwo/IDW60701/IDW60701.94405.axf

JavaScript Object Notation format (JSON) in row-major order
http://www.bom.gov.au/fwo/IDW60701/IDW60701.94405.json

Data quality

Most of these data are generated automatically and are frequently updated. Quality checks on data are not normally performed. It is possible for incorrect values to appear. Refer to information at About Latest Weather Observations and please check the disclaimer before using these data.